sensor_id;sensor_type;location;lat;lon;timestamp;temperature;humidity
15332;DHT22;7766;51.534;6.722;2022-12-26T00:00:37;11.70;99.90
15332;DHT22;7766;51.534;6.722;2022-12-26T00:01:42;11.70;99.90
15332;DHT22;7766;51.534;6.722;2022-12-26T00:02:48;11.70;99.90
15332;DHT22;7766;51.534;6.722;2022-12-26T00:03:49;11.80;99.90
15332;DHT22;7766;51.534;6.722;2022-12-26T00:04:50;11.80;99.90
15332;DHT22;7766;51.534;6.722;2022-12-26T00:05:50;11.80;99.90
15332;DHT22;7766;51.534;6.722;2022-12-26T00:06:51;11.80;99.90
15332;DHT22;7766;51.534;6.722;2022-12-26T00:07:51;11.80;99.90
15332;DHT22;7766;51.534;6.722;2022-12-26T00:08:53;11.80;99.90
15332;DHT22;7766;51.534;6.722;2022-12-26T00:09:54;11.80;99.90
15332;DHT22;7766;51.534;6.722;2022-12-26T00:10:55;11.70;99.90
15332;DHT22;7766;51.534;6.722;2022-12-26T00:12:56;11.80;99.90
15332;DHT22;7766;51.534;6.722;2022-12-26T00:14:09;11.70;99.90
15332;DHT22;7766;51.534;6.722;2022-12-26T00:15:12;11.70;99.90
15332;DHT22;7766;51.534;6.722;2022-12-26T00:16:15;11.70;99.90
15332;DHT22;7766;51.534;6.722;2022-12-26T00:17:17;11.60;99.90
15332;DHT22;7766;51.534;6.722;2022-12-26T00:18:17;11.60;99.90
15332;DHT22;7766;51.534;6.722;2022-12-26T00:20:19;11.50;99.90
15332;DHT22;7766;51.534;6.722;2022-12-26T00:21:20;11.50;99.90
15332;DHT22;7766;51.534;6.722;2022-12-26T00:23:24;11.50;99.90
15332;DHT22;7766;51.534;6.722;2022-12-26T00:25:25;11.50;99.90
15332;DHT22;7766;51.534;6.722;2022-12-26T00:26:29;11.50;99.90
15332;DHT22;7766;51.534;6.722;2022-12-26T00:28:32;11.50;99.90
15332;DHT22;7766;51.534;6.722;2022-12-26T00:29:33;11.50;99.90
15332;DHT22;7766;51.534;6.722;2022-12-26T00:30:36;11.50;99.90
15332;DHT22;7766;51.534;6.722;2022-12-26T00:32:38;11.50;99.90
15332;DHT22;7766;51.534;6.722;2022-12-26T00:33:39;11.50;99.90
15332;DHT22;7766;51.534;6.722;2022-12-26T00:34:40;11.50;99.90
15332;DHT22;7766;51.534;6.722;2022-12-26T00:35:40;11.50;99.90
15332;DHT22;7766;51.534;6.722;2022-12-26T00:36:41;11.50;99.90
15332;DHT22;7766;51.534;6.722;2022-12-26T00:37:42;11.50;99.90
15332;DHT22;7766;51.534;6.722;2022-12-26T00:38:43;11.50;99.90
15332;DHT22;7766;51.534;6.722;2022-12-26T00:39:44;11.60;99.90
15332;DHT22;7766;51.534;6.722;2022-12-26T00:40:45;11.60;99.90
15332;DHT22;7766;51.534;6.722;2022-12-26T00:43:48;11.60;99.90
15332;DHT22;7766;51.534;6.722;2022-12-26T00:45:50;11.60;99.90
15332;DHT22;7766;51.534;6.722;2022-12-26T00:46:50;11.60;99.90
15332;DHT22;7766;51.534;6.722;2022-12-26T00:47:51;11.60;99.90
15332;DHT22;7766;51.534;6.722;2022-12-26T00:48:52;11.60;99.90
15332;DHT22;7766;51.534;6.722;2022-12-26T00:49:53;11.60;99.90
15332;DHT22;7766;51.534;6.722;2022-12-26T00:50:54;11.60;99.90
15332;DHT22;7766;51.534;6.722;2022-12-26T00:52:56;11.60;99.90
15332;DHT22;7766;51.534;6.722;2022-12-26T00:53:57;11.60;99.90
15332;DHT22;7766;51.534;6.722;2022-12-26T00:54:57;11.60;99.90
15332;DHT22;7766;51.534;6.722;2022-12-26T00:56:59;11.60;99.90
15332;DHT22;7766;51.534;6.722;2022-12-26T00:58:00;11.60;99.90
15332;DHT22;7766;51.534;6.722;2022-12-26T00:59:00;11.60;99.90
15332;DHT22;7766;51.534;6.722;2022-12-26T01:00:01;11.60;99.90
15332;DHT22;7766;51.534;6.722;2022-12-26T01:01:13;11.60;99.90
15332;DHT22;7766;51.534;6.722;2022-12-26T01:02:16;11.60;99.90
15332;DHT22;7766;51.534;6.722;2022-12-26T01:03:35;11.60;99.90
15332;DHT22;7766;51.534;6.722;2022-12-26T01:04:35;11.60;99.90
15332;DHT22;7766;51.534;6.722;2022-12-26T01:05:41;11.70;99.90
15332;DHT22;7766;51.534;6.722;2022-12-26T01:06:43;11.60;99.90
15332;DHT22;7766;51.534;6.722;2022-12-26T01:07:43;11.60;99.90
15332;DHT22;7766;51.534;6.722;2022-12-26T01:08:44;11.60;99.90
15332;DHT22;7766;51.534;6.722;2022-12-26T01:09:45;11.50;99.90
15332;DHT22;7766;51.534;6.722;2022-12-26T01:10:46;11.50;99.90
15332;DHT22;7766;51.534;6.722;2022-12-26T01:12:48;11.50;99.90
15332;DHT22;7766;51.534;6.722;2022-12-26T01:13:49;11.50;99.90
15332;DHT22;7766;51.534;6.722;2022-12-26T01:15:52;11.50;99.90
15332;DHT22;7766;51.534;6.722;2022-12-26T01:16:53;11.50;99.90
15332;DHT22;7766;51.534;6.722;2022-12-26T01:17:53;11.60;99.90
15332;DHT22;7766;51.534;6.722;2022-12-26T01:18:54;11.50;99.90
15332;DHT22;7766;51.534;6.722;2022-12-26T01:19:55;11.50;99.90
15332;DHT22;7766;51.534;6.722;2022-12-26T01:21:02;11.50;99.90
15332;DHT22;7766;51.534;6.722;2022-12-26T01:23:09;11.40;99.90
15332;DHT22;7766;51.534;6.722;2022-12-26T01:25:11;11.40;99.90
15332;DHT22;7766;51.534;6.722;2022-12-26T01:26:11;11.40;99.90
15332;DHT22;7766;51.534;6.722;2022-12-26T01:27:12;11.40;99.90
15332;DHT22;7766;51.534;6.722;2022-12-26T01:30:15;11.30;99.90
15332;DHT22;7766;51.534;6.722;2022-12-26T01:31:16;11.30;99.90
15332;DHT22;7766;51.534;6.722;2022-12-26T01:32:18;11.30;99.90
15332;DHT22;7766;51.534;6.722;2022-12-26T01:33:19;11.30;99.90
15332;DHT22;7766;51.534;6.722;2022-12-26T01:35:21;11.30;99.90
15332;DHT22;7766;51.534;6.722;2022-12-26T01:38:24;11.20;99.90
15332;DHT22;7766;51.534;6.722;2022-12-26T01:39:24;11.20;99.90
15332;DHT22;7766;51.534;6.722;2022-12-26T01:41:26;11.20;99.90
15332;DHT22;7766;51.534;6.722;2022-12-26T01:42:36;11.20;99.90
15332;DHT22;7766;51.534;6.722;2022-12-26T01:43:51;11.20;99.90
15332;DHT22;7766;51.534;6.722;2022-12-26T01:45:21;11.20;99.90
15332;DHT22;7766;51.534;6.722;2022-12-26T01:46:43;11.20;99.90
15332;DHT22;7766;51.534;6.722;2022-12-26T01:47:56;11.20;99.90
15332;DHT22;7766;51.534;6.722;2022-12-26T01:50:53;11.20;99.90
15332;DHT22;7766;51.534;6.722;2022-12-26T01:52:04;11.20;99.90
15332;DHT22;7766;51.534;6.722;2022-12-26T01:53:26;11.20;99.90
15332;DHT22;7766;51.534;6.722;2022-12-26T01:54:36;11.20;99.90
15332;DHT22;7766;51.534;6.722;2022-12-26T01:55:39;11.20;99.90
15332;DHT22;7766;51.534;6.722;2022-12-26T01:56:43;11.20;99.90
15332;DHT22;7766;51.534;6.722;2022-12-26T01:58:09;11.20;99.90
15332;DHT22;7766;51.534;6.722;2022-12-26T01:59:18;11.20;99.90
15332;DHT22;7766;51.534;6.722;2022-12-26T02:00:23;11.20;99.90
15332;DHT22;7766;51.534;6.722;2022-12-26T02:01:28;11.20;99.90
15332;DHT22;7766;51.534;6.722;2022-12-26T02:03:52;11.20;99.90
15332;DHT22;7766;51.534;6.722;2022-12-26T02:05:11;11.20;99.90
15332;DHT22;7766;51.534;6.722;2022-12-26T02:06:31;11.20;99.90
15332;DHT22;7766;51.534;6.722;2022-12-26T02:07:35;11.20;99.90
15332;DHT22;7766;51.534;6.722;2022-12-26T02:08:40;11.20;99.90
15332;DHT22;7766;51.534;6.722;2022-12-26T02:09:41;11.20;99.90
15332;DHT22;7766;51.534;6.722;2022-12-26T02:10:59;11.20;99.90
15332;DHT22;7766;51.534;6.722;2022-12-26T02:12:25;11.20;99.90
15332;DHT22;7766;51.534;6.722;2022-12-26T02:13:30;11.20;99.90
15332;DHT22;7766;51.534;6.722;2022-12-26T02:14:32;11.20;99.90
15332;DHT22;7766;51.534;6.722;2022-12-26T02:15:34;11.10;99.90
15332;DHT22;7766;51.534;6.722;2022-12-26T02:16:36;11.10;99.90
15332;DHT22;7766;51.534;6.722;2022-12-26T02:17:39;11.20;99.90
15332;DHT22;7766;51.534;6.722;2022-12-26T02:18:41;11.10;99.90
15332;DHT22;7766;51.534;6.722;2022-12-26T02:23:16;11.10;99.90
15332;DHT22;7766;51.534;6.722;2022-12-26T02:24:56;11.00;99.90
15332;DHT22;7766;51.534;6.722;2022-12-26T02:32:36;10.90;99.90
15332;DHT22;7766;51.534;6.722;2022-12-26T02:34:20;10.90;99.90
15332;DHT22;7766;51.534;6.722;2022-12-26T02:40:18;11.00;99.90
15332;DHT22;7766;51.534;6.722;2022-12-26T02:41:32;11.00;99.90
15332;DHT22;7766;51.534;6.722;2022-12-26T02:42:58;11.00;99.90
15332;DHT22;7766;51.534;6.722;2022-12-26T02:44:21;11.00;99.90
15332;DHT22;7766;51.534;6.722;2022-12-26T02:47:59;11.10;99.90
15332;DHT22;7766;51.534;6.722;2022-12-26T02:50:38;11.10;99.90
15332;DHT22;7766;51.534;6.722;2022-12-26T02:52:16;11.10;99.90
15332;DHT22;7766;51.534;6.722;2022-12-26T02:54:02;11.10;99.90
15332;DHT22;7766;51.534;6.722;2022-12-26T02:55:31;11.10;99.90
15332;DHT22;7766;51.534;6.722;2022-12-26T02:56:56;11.10;99.90
15332;DHT22;7766;51.534;6.722;2022-12-26T02:58:29;11.10;99.90
15332;DHT22;7766;51.534;6.722;2022-12-26T03:01:41;11.10;99.90
15332;DHT22;7766;51.534;6.722;2022-12-26T03:03:11;11.10;99.90
15332;DHT22;7766;51.534;6.722;2022-12-26T03:04:36;11.10;99.90
15332;DHT22;7766;51.534;6.722;2022-12-26T03:07:34;11.10;99.90
15332;DHT22;7766;51.534;6.722;2022-12-26T03:09:00;11.10;99.90
15332;DHT22;7766;51.534;6.722;2022-12-26T03:10:32;11.10;99.90
15332;DHT22;7766;51.534;6.722;2022-12-26T03:11:58;11.10;99.90
15332;DHT22;7766;51.534;6.722;2022-12-26T03:13:29;11.10;99.90
15332;DHT22;7766;51.534;6.722;2022-12-26T03:14:40;11.10;99.90
15332;DHT22;7766;51.534;6.722;2022-12-26T03:15:56;11.10;99.90
15332;DHT22;7766;51.534;6.722;2022-12-26T03:17:36;11.10;99.90
15332;DHT22;7766;51.534;6.722;2022-12-26T03:18:44;11.00;99.90
15332;DHT22;7766;51.534;6.722;2022-12-26T03:20:03;11.00;99.90
15332;DHT22;7766;51.534;6.722;2022-12-26T03:21:08;11.00;99.90
15332;DHT22;7766;51.534;6.722;2022-12-26T03:23:30;11.00;99.90
15332;DHT22;7766;51.534;6.722;2022-12-26T03:24:32;11.00;99.90
15332;DHT22;7766;51.534;6.722;2022-12-26T03:25:58;11.00;99.90
15332;DHT22;7766;51.534;6.722;2022-12-26T03:27:22;11.00;99.90
15332;DHT22;7766;51.534;6.722;2022-12-26T03:28:23;11.00;99.90
15332;DHT22;7766;51.534;6.722;2022-12-26T03:30:44;11.00;99.90
15332;DHT22;7766;51.534;6.722;2022-12-26T03:31:51;11.00;99.90
15332;DHT22;7766;51.534;6.722;2022-12-26T03:32:55;11.00;99.90
15332;DHT22;7766;51.534;6.722;2022-12-26T03:34:04;11.00;99.90
15332;DHT22;7766;51.534;6.722;2022-12-26T03:35:19;10.90;99.90
15332;DHT22;7766;51.534;6.722;2022-12-26T03:36:42;11.00;99.90
15332;DHT22;7766;51.534;6.722;2022-12-26T03:37:55;11.00;99.90
15332;DHT22;7766;51.534;6.722;2022-12-26T03:39:41;11.00;99.90
15332;DHT22;7766;51.534;6.722;2022-12-26T03:41:24;11.00;99.90
15332;DHT22;7766;51.534;6.722;2022-12-26T03:45:51;11.00;99.90
15332;DHT22;7766;51.534;6.722;2022-12-26T03:47:25;11.00;99.90
15332;DHT22;7766;51.534;6.722;2022-12-26T03:50:28;11.00;99.90
15332;DHT22;7766;51.534;6.722;2022-12-26T03:53:33;10.90;99.90
15332;DHT22;7766;51.534;6.722;2022-12-26T03:55:08;10.90;99.90
15332;DHT22;7766;51.534;6.722;2022-12-26T03:56:39;10.90;99.90
15332;DHT22;7766;51.534;6.722;2022-12-26T03:58:21;10.90;99.90
15332;DHT22;7766;51.534;6.722;2022-12-26T04:00:01;10.90;99.90
15332;DHT22;7766;51.534;6.722;2022-12-26T04:01:27;10.80;99.90
15332;DHT22;7766;51.534;6.722;2022-12-26T04:02:50;10.80;99.90
15332;DHT22;7766;51.534;6.722;2022-12-26T04:04:14;10.80;99.90
15332;DHT22;7766;51.534;6.722;2022-12-26T04:05:36;10.80;99.90
15332;DHT22;7766;51.534;6.722;2022-12-26T04:07:24;10.80;99.90
15332;DHT22;7766;51.534;6.722;2022-12-26T04:08:54;10.70;99.90
15332;DHT22;7766;51.534;6.722;2022-12-26T04:10:26;10.70;99.90
15332;DHT22;7766;51.534;6.722;2022-12-26T04:11:49;10.70;99.90
15332;DHT22;7766;51.534;6.722;2022-12-26T04:13:32;10.60;99.90
15332;DHT22;7766;51.534;6.722;2022-12-26T04:17:21;10.70;99.90
15332;DHT22;7766;51.534;6.722;2022-12-26T04:21:03;10.60;99.90
15332;DHT22;7766;51.534;6.722;2022-12-26T04:22:58;10.60;99.90
15332;DHT22;7766;51.534;6.722;2022-12-26T04:24:28;10.50;99.90
15332;DHT22;7766;51.534;6.722;2022-12-26T04:25:58;10.60;99.90
15332;DHT22;7766;51.534;6.722;2022-12-26T04:27:24;10.60;99.90
15332;DHT22;7766;51.534;6.722;2022-12-26T04:28:47;10.60;99.90
15332;DHT22;7766;51.534;6.722;2022-12-26T04:30:06;10.60;99.90
15332;DHT22;7766;51.534;6.722;2022-12-26T04:31:33;10.60;99.90
15332;DHT22;7766;51.534;6.722;2022-12-26T04:33:07;10.60;99.90
15332;DHT22;7766;51.534;6.722;2022-12-26T04:34:46;10.60;99.90
15332;DHT22;7766;51.534;6.722;2022-12-26T04:36:17;10.60;99.90
15332;DHT22;7766;51.534;6.722;2022-12-26T04:37:43;10.60;99.90
15332;DHT22;7766;51.534;6.722;2022-12-26T04:39:08;10.60;99.90
15332;DHT22;7766;51.534;6.722;2022-12-26T04:40:33;10.70;99.90
15332;DHT22;7766;51.534;6.722;2022-12-26T04:41:58;10.70;99.90
15332;DHT22;7766;51.534;6.722;2022-12-26T04:43:19;10.70;99.90
15332;DHT22;7766;51.534;6.722;2022-12-26T04:45:41;10.70;99.90
15332;DHT22;7766;51.534;6.722;2022-12-26T04:46:44;10.80;99.90
15332;DHT22;7766;51.534;6.722;2022-12-26T04:47:49;10.70;99.90
15332;DHT22;7766;51.534;6.722;2022-12-26T04:49:11;10.80;99.90
15332;DHT22;7766;51.534;6.722;2022-12-26T04:50:32;10.80;99.90
15332;DHT22;7766;51.534;6.722;2022-12-26T04:52:35;10.80;99.90
15332;DHT22;7766;51.534;6.722;2022-12-26T04:54:55;10.80;99.90
15332;DHT22;7766;51.534;6.722;2022-12-26T04:56:57;10.80;99.90
15332;DHT22;7766;51.534;6.722;2022-12-26T04:57:58;10.80;99.90
15332;DHT22;7766;51.534;6.722;2022-12-26T04:58:59;10.70;99.90
15332;DHT22;7766;51.534;6.722;2022-12-26T05:00:00;10.70;99.90
15332;DHT22;7766;51.534;6.722;2022-12-26T05:04:59;10.70;99.90
15332;DHT22;7766;51.534;6.722;2022-12-26T05:10:28;10.70;99.90
15332;DHT22;7766;51.534;6.722;2022-12-26T05:11:31;10.70;99.90
15332;DHT22;7766;51.534;6.722;2022-12-26T05:12:33;10.70;99.90
15332;DHT22;7766;51.534;6.722;2022-12-26T05:16:59;10.70;99.90
15332;DHT22;7766;51.534;6.722;2022-12-26T05:21:01;10.60;99.90
15332;DHT22;7766;51.534;6.722;2022-12-26T05:26:21;10.50;99.90
15332;DHT22;7766;51.534;6.722;2022-12-26T05:27:42;10.50;99.90
15332;DHT22;7766;51.534;6.722;2022-12-26T05:29:03;10.50;99.90
15332;DHT22;7766;51.534;6.722;2022-12-26T05:30:05;10.50;99.90
15332;DHT22;7766;51.534;6.722;2022-12-26T05:31:08;10.50;99.90
15332;DHT22;7766;51.534;6.722;2022-12-26T05:32:17;10.50;99.90
15332;DHT22;7766;51.534;6.722;2022-12-26T05:34:56;10.60;99.90
15332;DHT22;7766;51.534;6.722;2022-12-26T05:35:57;10.60;99.90
15332;DHT22;7766;51.534;6.722;2022-12-26T05:38:00;10.60;99.90
15332;DHT22;7766;51.534;6.722;2022-12-26T05:39:02;10.60;99.90
15332;DHT22;7766;51.534;6.722;2022-12-26T05:41:04;10.60;99.90
15332;DHT22;7766;51.534;6.722;2022-12-26T05:44:08;10.60;99.90
15332;DHT22;7766;51.534;6.722;2022-12-26T05:45:09;10.60;99.90
15332;DHT22;7766;51.534;6.722;2022-12-26T05:46:10;10.60;99.90
15332;DHT22;7766;51.534;6.722;2022-12-26T05:47:11;10.60;99.90
15332;DHT22;7766;51.534;6.722;2022-12-26T05:48:11;10.60;99.90
15332;DHT22;7766;51.534;6.722;2022-12-26T05:49:12;10.60;99.90
15332;DHT22;7766;51.534;6.722;2022-12-26T05:52:15;10.50;99.90
15332;DHT22;7766;51.534;6.722;2022-12-26T05:54:16;10.50;99.90
15332;DHT22;7766;51.534;6.722;2022-12-26T05:55:17;10.50;99.90
15332;DHT22;7766;51.534;6.722;2022-12-26T05:56:18;10.50;99.90
15332;DHT22;7766;51.534;6.722;2022-12-26T05:57:19;10.50;99.90
15332;DHT22;7766;51.534;6.722;2022-12-26T05:58:20;10.50;99.90
15332;DHT22;7766;51.534;6.722;2022-12-26T05:59:21;10.50;99.90
15332;DHT22;7766;51.534;6.722;2022-12-26T06:00:22;10.50;99.90
15332;DHT22;7766;51.534;6.722;2022-12-26T06:01:23;10.50;99.90
15332;DHT22;7766;51.534;6.722;2022-12-26T06:02:25;10.50;99.90
15332;DHT22;7766;51.534;6.722;2022-12-26T06:03:25;10.40;99.90
15332;DHT22;7766;51.534;6.722;2022-12-26T06:04:28;10.40;99.90
15332;DHT22;7766;51.534;6.722;2022-12-26T06:06:31;10.50;99.90
15332;DHT22;7766;51.534;6.722;2022-12-26T06:12:37;10.40;99.90
15332;DHT22;7766;51.534;6.722;2022-12-26T06:13:39;10.40;99.90
15332;DHT22;7766;51.534;6.722;2022-12-26T06:15:41;10.40;99.90
15332;DHT22;7766;51.534;6.722;2022-12-26T06:16:42;10.40;99.90
15332;DHT22;7766;51.534;6.722;2022-12-26T06:18:44;10.40;99.90
15332;DHT22;7766;51.534;6.722;2022-12-26T06:19:45;10.40;99.90
15332;DHT22;7766;51.534;6.722;2022-12-26T06:20:46;10.40;99.90
15332;DHT22;7766;51.534;6.722;2022-12-26T06:22:47;10.40;99.90
15332;DHT22;7766;51.534;6.722;2022-12-26T06:25:54;10.30;99.90
15332;DHT22;7766;51.534;6.722;2022-12-26T06:26:56;10.30;99.90
15332;DHT22;7766;51.534;6.722;2022-12-26T06:27:56;10.30;99.90
15332;DHT22;7766;51.534;6.722;2022-12-26T06:28:57;10.30;99.90
15332;DHT22;7766;51.534;6.722;2022-12-26T06:32:09;10.20;99.90
15332;DHT22;7766;51.534;6.722;2022-12-26T06:35:12;10.20;99.90
15332;DHT22;7766;51.534;6.722;2022-12-26T06:36:15;10.10;99.90
15332;DHT22;7766;51.534;6.722;2022-12-26T06:37:17;10.10;99.90
15332;DHT22;7766;51.534;6.722;2022-12-26T06:39:19;10.10;99.90
15332;DHT22;7766;51.534;6.722;2022-12-26T06:41:22;10.10;99.90
15332;DHT22;7766;51.534;6.722;2022-12-26T06:42:23;10.10;99.90
15332;DHT22;7766;51.534;6.722;2022-12-26T06:45:26;10.10;99.90
15332;DHT22;7766;51.534;6.722;2022-12-26T06:46:27;10.10;99.90
15332;DHT22;7766;51.534;6.722;2022-12-26T06:47:28;10.10;99.90
15332;DHT22;7766;51.534;6.722;2022-12-26T06:48:28;10.10;99.90
15332;DHT22;7766;51.534;6.722;2022-12-26T06:49:29;10.10;99.90
15332;DHT22;7766;51.534;6.722;2022-12-26T06:51:31;10.10;99.90
15332;DHT22;7766;51.534;6.722;2022-12-26T06:52:32;10.10;99.90
15332;DHT22;7766;51.534;6.722;2022-12-26T06:53:33;10.10;99.90
15332;DHT22;7766;51.534;6.722;2022-12-26T06:54:34;10.10;99.90
15332;DHT22;7766;51.534;6.722;2022-12-26T06:55:35;10.10;99.90
15332;DHT22;7766;51.534;6.722;2022-12-26T06:56:35;10.10;99.90
15332;DHT22;7766;51.534;6.722;2022-12-26T06:57:36;10.10;99.90
15332;DHT22;7766;51.534;6.722;2022-12-26T06:58:37;10.00;99.90
15332;DHT22;7766;51.534;6.722;2022-12-26T06:59:38;10.10;99.90
15332;DHT22;7766;51.534;6.722;2022-12-26T07:00:38;10.00;99.90
15332;DHT22;7766;51.534;6.722;2022-12-26T07:01:39;10.10;99.90
15332;DHT22;7766;51.534;6.722;2022-12-26T07:02:39;10.10;99.90
15332;DHT22;7766;51.534;6.722;2022-12-26T07:03:41;10.10;99.90
15332;DHT22;7766;51.534;6.722;2022-12-26T07:04:42;10.10;99.90
15332;DHT22;7766;51.534;6.722;2022-12-26T07:06:44;10.20;99.90
15332;DHT22;7766;51.534;6.722;2022-12-26T07:07:50;10.20;99.90
15332;DHT22;7766;51.534;6.722;2022-12-26T07:08:55;10.20;99.90
15332;DHT22;7766;51.534;6.722;2022-12-26T07:09:57;10.20;99.90
15332;DHT22;7766;51.534;6.722;2022-12-26T07:10:58;10.20;99.90
15332;DHT22;7766;51.534;6.722;2022-12-26T07:14:00;10.30;99.90
15332;DHT22;7766;51.534;6.722;2022-12-26T07:15:01;10.30;99.90
15332;DHT22;7766;51.534;6.722;2022-12-26T07:16:02;10.30;99.90
15332;DHT22;7766;51.534;6.722;2022-12-26T07:19:05;10.30;99.90
15332;DHT22;7766;51.534;6.722;2022-12-26T07:20:07;10.30;99.90
15332;DHT22;7766;51.534;6.722;2022-12-26T07:21:10;10.30;99.90
15332;DHT22;7766;51.534;6.722;2022-12-26T07:24:20;10.30;99.90
15332;DHT22;7766;51.534;6.722;2022-12-26T07:25:21;10.30;99.90
15332;DHT22;7766;51.534;6.722;2022-12-26T07:26:23;10.30;99.90
15332;DHT22;7766;51.534;6.722;2022-12-26T07:27:25;10.30;99.90
15332;DHT22;7766;51.534;6.722;2022-12-26T07:28:26;10.30;99.90
15332;DHT22;7766;51.534;6.722;2022-12-26T07:29:27;10.30;99.90
15332;DHT22;7766;51.534;6.722;2022-12-26T07:31:29;10.30;99.90
15332;DHT22;7766;51.534;6.722;2022-12-26T07:32:30;10.30;99.90
15332;DHT22;7766;51.534;6.722;2022-12-26T07:33:31;10.30;99.90
15332;DHT22;7766;51.534;6.722;2022-12-26T07:34:32;10.40;99.90
15332;DHT22;7766;51.534;6.722;2022-12-26T07:38:35;10.40;99.90
15332;DHT22;7766;51.534;6.722;2022-12-26T07:39:36;10.40;99.90
15332;DHT22;7766;51.534;6.722;2022-12-26T07:40:37;10.40;99.90
15332;DHT22;7766;51.534;6.722;2022-12-26T07:42:57;10.50;99.90
15332;DHT22;7766;51.534;6.722;2022-12-26T07:44:59;10.50;99.90
15332;DHT22;7766;51.534;6.722;2022-12-26T07:45:59;10.60;99.90
15332;DHT22;7766;51.534;6.722;2022-12-26T07:48:01;10.60;99.90
15332;DHT22;7766;51.534;6.722;2022-12-26T07:49:02;10.60;99.90
15332;DHT22;7766;51.534;6.722;2022-12-26T07:50:03;10.60;99.90
15332;DHT22;7766;51.534;6.722;2022-12-26T07:51:04;10.60;99.90
15332;DHT22;7766;51.534;6.722;2022-12-26T07:52:05;10.60;99.90
15332;DHT22;7766;51.534;6.722;2022-12-26T07:53:06;10.70;99.90
15332;DHT22;7766;51.534;6.722;2022-12-26T07:57:10;10.70;99.90
15332;DHT22;7766;51.534;6.722;2022-12-26T07:59:14;10.70;99.90
15332;DHT22;7766;51.534;6.722;2022-12-26T08:00:16;10.70;99.90
15332;DHT22;7766;51.534;6.722;2022-12-26T08:06:23;10.70;99.90
15332;DHT22;7766;51.534;6.722;2022-12-26T08:07:24;10.70;99.90
15332;DHT22;7766;51.534;6.722;2022-12-26T08:08:25;10.70;99.90
15332;DHT22;7766;51.534;6.722;2022-12-26T08:09:25;10.70;99.90
15332;DHT22;7766;51.534;6.722;2022-12-26T08:10:26;10.70;99.90
15332;DHT22;7766;51.534;6.722;2022-12-26T08:11:27;10.70;99.90
15332;DHT22;7766;51.534;6.722;2022-12-26T08:12:32;10.70;99.90
15332;DHT22;7766;51.534;6.722;2022-12-26T08:13:34;10.70;99.90
15332;DHT22;7766;51.534;6.722;2022-12-26T08:14:36;10.70;99.90
15332;DHT22;7766;51.534;6.722;2022-12-26T08:15:37;10.70;99.90
15332;DHT22;7766;51.534;6.722;2022-12-26T08:16:39;10.70;99.90
15332;DHT22;7766;51.534;6.722;2022-12-26T08:19:42;10.70;99.90
15332;DHT22;7766;51.534;6.722;2022-12-26T08:20:42;10.70;99.90
15332;DHT22;7766;51.534;6.722;2022-12-26T08:22:44;10.70;99.90
15332;DHT22;7766;51.534;6.722;2022-12-26T08:23:44;10.70;99.90
15332;DHT22;7766;51.534;6.722;2022-12-26T08:24:47;10.70;99.90
15332;DHT22;7766;51.534;6.722;2022-12-26T08:26:49;10.80;99.90
15332;DHT22;7766;51.534;6.722;2022-12-26T08:28:51;10.80;99.90
15332;DHT22;7766;51.534;6.722;2022-12-26T08:31:54;10.80;99.90
15332;DHT22;7766;51.534;6.722;2022-12-26T08:33:56;10.80;99.90
15332;DHT22;7766;51.534;6.722;2022-12-26T08:34:56;10.80;99.90
15332;DHT22;7766;51.534;6.722;2022-12-26T08:36:01;10.80;99.90
15332;DHT22;7766;51.534;6.722;2022-12-26T08:38:07;10.80;99.90
15332;DHT22;7766;51.534;6.722;2022-12-26T08:42:11;10.80;99.90
15332;DHT22;7766;51.534;6.722;2022-12-26T08:43:12;10.70;99.90
15332;DHT22;7766;51.534;6.722;2022-12-26T08:46:19;10.70;99.90
15332;DHT22;7766;51.534;6.722;2022-12-26T08:47:21;10.70;99.90
15332;DHT22;7766;51.534;6.722;2022-12-26T08:52:30;10.70;99.90
15332;DHT22;7766;51.534;6.722;2022-12-26T08:54:32;10.70;99.90
15332;DHT22;7766;51.534;6.722;2022-12-26T08:56:34;10.70;99.90
15332;DHT22;7766;51.534;6.722;2022-12-26T08:57:35;10.70;99.90
15332;DHT22;7766;51.534;6.722;2022-12-26T08:58:35;10.70;99.90
15332;DHT22;7766;51.534;6.722;2022-12-26T09:00:37;10.70;99.90
15332;DHT22;7766;51.534;6.722;2022-12-26T09:01:39;10.70;99.90
15332;DHT22;7766;51.534;6.722;2022-12-26T09:02:39;10.70;99.90
15332;DHT22;7766;51.534;6.722;2022-12-26T09:03:41;10.70;99.90
15332;DHT22;7766;51.534;6.722;2022-12-26T09:04:42;10.70;99.90
15332;DHT22;7766;51.534;6.722;2022-12-26T09:06:44;10.80;99.90
15332;DHT22;7766;51.534;6.722;2022-12-26T09:07:44;10.80;99.90
15332;DHT22;7766;51.534;6.722;2022-12-26T09:08:45;10.80;99.90
15332;DHT22;7766;51.534;6.722;2022-12-26T09:09:47;10.90;99.90
15332;DHT22;7766;51.534;6.722;2022-12-26T09:10:48;11.00;99.90
15332;DHT22;7766;51.534;6.722;2022-12-26T09:14:52;11.10;99.90
15332;DHT22;7766;51.534;6.722;2022-12-26T09:15:52;11.10;99.90
15332;DHT22;7766;51.534;6.722;2022-12-26T09:18:58;11.30;99.90
15332;DHT22;7766;51.534;6.722;2022-12-26T09:20:00;11.40;99.90
15332;DHT22;7766;51.534;6.722;2022-12-26T09:21:02;11.50;99.90
15332;DHT22;7766;51.534;6.722;2022-12-26T09:22:04;11.60;99.90
15332;DHT22;7766;51.534;6.722;2022-12-26T09:25:25;11.80;99.90
15332;DHT22;7766;51.534;6.722;2022-12-26T09:26:26;11.90;99.90
15332;DHT22;7766;51.534;6.722;2022-12-26T09:27:28;12.00;99.90
15332;DHT22;7766;51.534;6.722;2022-12-26T09:31:34;12.50;99.90
15332;DHT22;7766;51.534;6.722;2022-12-26T09:32:35;12.70;99.90
15332;DHT22;7766;51.534;6.722;2022-12-26T09:34:37;12.70;99.90
15332;DHT22;7766;51.534;6.722;2022-12-26T09:35:41;12.50;99.90
15332;DHT22;7766;51.534;6.722;2022-12-26T09:38:45;13.00;99.90
15332;DHT22;7766;51.534;6.722;2022-12-26T09:42:27;13.30;99.90
15332;DHT22;7766;51.534;6.722;2022-12-26T09:45:15;13.70;99.90
15332;DHT22;7766;51.534;6.722;2022-12-26T09:46:23;13.50;99.90
15332;DHT22;7766;51.534;6.722;2022-12-26T09:49:49;13.50;99.90
15332;DHT22;7766;51.534;6.722;2022-12-26T09:50:50;13.30;99.90
15332;DHT22;7766;51.534;6.722;2022-12-26T09:51:56;13.10;99.90
15332;DHT22;7766;51.534;6.722;2022-12-26T09:53:05;13.00;99.90
15332;DHT22;7766;51.534;6.722;2022-12-26T09:54:42;13.10;99.90
15332;DHT22;7766;51.534;6.722;2022-12-26T09:55:56;13.00;99.90
15332;DHT22;7766;51.534;6.722;2022-12-26T09:57:02;12.80;99.90
15332;DHT22;7766;51.534;6.722;2022-12-26T09:58:28;12.70;99.90
15332;DHT22;7766;51.534;6.722;2022-12-26T09:59:33;12.60;99.90
15332;DHT22;7766;51.534;6.722;2022-12-26T10:00:50;12.50;99.90
15332;DHT22;7766;51.534;6.722;2022-12-26T10:02:57;12.60;99.90
15332;DHT22;7766;51.534;6.722;2022-12-26T10:03:59;12.50;99.90
15332;DHT22;7766;51.534;6.722;2022-12-26T10:05:04;12.40;99.90
15332;DHT22;7766;51.534;6.722;2022-12-26T10:06:20;12.30;99.90
15332;DHT22;7766;51.534;6.722;2022-12-26T10:09:21;12.00;99.90
15332;DHT22;7766;51.534;6.722;2022-12-26T10:13:15;11.70;99.90
15332;DHT22;7766;51.534;6.722;2022-12-26T10:16:04;11.70;99.90
15332;DHT22;7766;51.534;6.722;2022-12-26T10:17:29;11.80;99.90
15332;DHT22;7766;51.534;6.722;2022-12-26T10:18:45;11.90;99.90
15332;DHT22;7766;51.534;6.722;2022-12-26T10:20:44;11.90;99.90
15332;DHT22;7766;51.534;6.722;2022-12-26T10:21:40;11.90;99.90